createdAt,value
2017-12-24T00:00:33.692Z,27.80
2017-12-24T00:01:09.158Z,27.30
2017-12-24T00:01:44.062Z,27.35
2017-12-24T00:02:17.575Z,27.30
2017-12-24T00:02:53.468Z,27.20
2017-12-24T00:03:30.048Z,28.58
2017-12-24T00:04:03.380Z,29.05
2017-12-24T00:04:36.421Z,27.33
2017-12-24T00:05:08.949Z,26.75
2017-12-24T00:05:45.732Z,29.15
2017-12-24T00:06:21.962Z,26.20
2017-12-24T00:06:56.682Z,28.05
2017-12-24T00:07:30.336Z,25.95
2017-12-24T00:08:06.132Z,27.42
2017-12-24T00:08:40.347Z,25.92
2017-12-24T00:09:19.689Z,28.33
2017-12-24T00:09:54.451Z,28.05
2017-12-24T00:10:27.792Z,25.92
2017-12-24T00:11:00.393Z,28.02
2017-12-24T00:11:34.240Z,28.08
2017-12-24T00:12:10.148Z,26.27
2017-12-24T00:12:46.065Z,27.73
2017-12-24T00:13:19.187Z,27.17
2017-12-24T00:13:54.367Z,28.10
2017-12-24T00:14:27.910Z,26.65
2017-12-24T00:15:04.906Z,26.80
2017-12-24T00:15:37.492Z,26.67
2017-12-24T00:16:10.533Z,28.87
2017-12-24T00:16:46.613Z,25.75
2017-12-24T00:17:19.155Z,26.35
2017-12-24T00:17:52.654Z,27.17
2017-12-24T00:18:25.994Z,27.75
2017-12-24T00:19:01.115Z,29.05
2017-12-24T00:19:42.584Z,29.15
2017-12-24T00:20:16.240Z,26.05
2017-12-24T00:20:52.762Z,29.37
2017-12-24T00:21:32.264Z,28.10
2017-12-24T00:22:06.463Z,26.33
2017-12-24T00:22:43.118Z,26.85
2017-12-24T00:23:16.851Z,28.27
2017-12-24T00:24:30.554Z,27.58
2017-12-24T00:25:03.957Z,28.17
2017-12-24T00:25:37.977Z,26.73
2017-12-24T00:26:11.617Z,27.13
2017-12-24T00:26:45.506Z,29.85
2017-12-24T00:27:18.485Z,26.48
2017-12-24T00:27:53.422Z,28.25
2017-12-24T00:28:25.939Z,25.55
2017-12-24T00:28:59.319Z,27.85
2017-12-24T00:29:32.843Z,27.35
2017-12-24T00:30:07.543Z,24.77
2017-12-24T00:30:43.246Z,26.58
2017-12-24T00:31:20.694Z,25.05
2017-12-24T00:31:54.202Z,25.77
2017-12-24T00:32:41.441Z,24.85
2017-12-24T00:33:16.837Z,26.15
2017-12-24T00:33:51.923Z,24.67
2017-12-24T00:34:24.647Z,26.65
2017-12-24T00:34:59.086Z,25.70
2017-12-24T00:35:35.853Z,26.77
2017-12-24T00:36:11.021Z,23.90
2017-12-24T00:36:56.800Z,27.73
2017-12-24T00:37:29.393Z,24.50
2017-12-24T00:38:03.929Z,27.13
2017-12-24T00:38:36.470Z,25.15
2017-12-24T00:39:11.505Z,25.48
2017-12-24T00:39:46.748Z,25.62
2017-12-24T00:40:20.919Z,25.33
2017-12-24T00:40:59.367Z,25.83
2017-12-24T00:42:14.708Z,26.95
2017-12-24T00:42:49.967Z,23.80
2017-12-24T00:43:26.315Z,24.58
2017-12-24T00:44:00.578Z,24.05
2017-12-24T00:44:34.252Z,25.23
2017-12-24T00:45:10.379Z,24.20
2017-12-24T00:45:47.819Z,25.62
2017-12-24T00:46:21.167Z,23.83
2017-12-24T00:46:56.829Z,23.38
2017-12-24T00:47:30.964Z,23.70
2017-12-24T00:48:03.810Z,24.02
2017-12-24T00:48:38.685Z,23.83
2017-12-24T00:49:11.328Z,22.23
2017-12-24T00:49:46.035Z,24.37
2017-12-24T00:50:21.836Z,24.67
2017-12-24T00:50:54.408Z,24.67
2017-12-24T00:51:26.940Z,23.65
2017-12-24T00:52:00.396Z,23.10
2017-12-24T00:52:35.105Z,23.70
2017-12-24T00:53:09.918Z,23.25
2017-12-24T00:53:44.589Z,22.75
2017-12-24T00:54:18.486Z,23.12
2017-12-24T00:54:53.089Z,22.15
2017-12-24T00:55:32.965Z,23.05
2017-12-24T00:56:07.650Z,23.10
2017-12-24T00:56:44.921Z,22.52
2017-12-24T00:57:17.474Z,23.17
2017-12-24T00:57:51.827Z,22.17
2017-12-24T00:58:27.033Z,23.65
2017-12-24T00:59:44.697Z,21.67
2017-12-24T01:00:56.922Z,20.40
2017-12-24T01:01:33.741Z,21.45
2017-12-24T01:02:06.241Z,21.85
2017-12-24T01:02:43.515Z,21.67
2017-12-24T01:03:16.755Z,21.37
2017-12-24T01:03:54.781Z,24.25
2017-12-24T01:04:32.984Z,23.52
2017-12-24T01:05:07.839Z,22.23
2017-12-24T01:05:44.666Z,21.20
2017-12-24T01:06:20.796Z,21.40
2017-12-24T01:07:50.328Z,20.90
2017-12-24T01:08:26.250Z,21.25
2017-12-24T01:09:01.516Z,21.85
2017-12-24T01:09:35.033Z,21.80
2017-12-24T01:12:45.446Z,20.20
2017-12-24T01:13:18.192Z,18.50
2017-12-24T01:13:54.363Z,21.73
2017-12-24T01:14:33.692Z,20.98
2017-12-24T01:15:18.142Z,21.85
2017-12-24T01:15:50.923Z,20.40
2017-12-24T01:16:26.720Z,21.67
2017-12-24T01:17:06.524Z,20.73
2017-12-24T01:17:42.303Z,20.67
2017-12-24T01:18:16.789Z,23.40
2017-12-24T01:19:04.533Z,20.50
2017-12-24T01:19:38.072Z,19.65
2017-12-24T01:20:15.466Z,20.48
2017-12-24T01:20:48.920Z,20.55
2017-12-24T01:21:25.030Z,21.45
2017-12-24T01:22:04.754Z,21.05
2017-12-24T01:22:40.247Z,21.52
2017-12-24T01:23:16.242Z,21.62
2017-12-24T01:23:50.016Z,21.40
2017-12-24T01:24:26.912Z,22.62
2017-12-24T01:24:59.757Z,20.00
2017-12-24T01:25:32.316Z,19.20
2017-12-24T01:26:04.821Z,19.05
2017-12-24T01:26:37.350Z,20.50
2017-12-24T01:27:09.863Z,20.75
2017-12-24T01:27:42.721Z,21.15
2017-12-24T01:28:16.956Z,19.90
2017-12-24T01:28:51.936Z,19.65
2017-12-24T01:29:30.306Z,19.50
2017-12-24T01:30:04.872Z,19.17
2017-12-24T01:30:38.283Z,19.10
2017-12-24T01:31:12.308Z,20.35
2017-12-24T01:31:45.081Z,20.65
2017-12-24T01:32:17.781Z,19.83
2017-12-24T01:32:50.518Z,20.20
2017-12-24T01:33:23.801Z,21.12
2017-12-24T01:33:58.991Z,20.35
2017-12-24T01:34:31.721Z,20.25
2017-12-24T01:35:04.514Z,19.83
2017-12-24T01:35:37.403Z,18.67
2017-12-24T01:36:10.176Z,19.52
2017-12-24T01:36:42.788Z,18.25
2017-12-24T01:37:16.078Z,19.15
2017-12-24T01:37:48.580Z,19.90
2017-12-24T01:38:21.139Z,20.42
2017-12-24T01:38:53.922Z,20.17
2017-12-24T01:39:26.586Z,20.52
2017-12-24T01:39:59.287Z,19.92
2017-12-24T01:40:31.797Z,20.15
2017-12-24T01:41:04.307Z,20.60
2017-12-24T01:41:36.841Z,18.70
2017-12-24T01:42:09.406Z,19.48
2017-12-24T01:42:42.387Z,19.35
2017-12-24T01:43:15.060Z,21.55
2017-12-24T01:43:47.694Z,20.30
2017-12-24T01:44:20.321Z,20.35
2017-12-24T01:44:52.823Z,19.55
2017-12-24T01:45:25.329Z,19.95
2017-12-24T01:45:57.958Z,20.37
2017-12-24T01:46:30.919Z,19.95
2017-12-24T01:47:03.717Z,19.62
2017-12-24T01:47:48.032Z,19.42
2017-12-24T01:48:20.563Z,19.25
2017-12-24T01:48:53.102Z,18.45
2017-12-24T01:49:26.374Z,18.92
2017-12-24T01:49:59.663Z,20.70
2017-12-24T01:50:32.933Z,18.95
2017-12-24T01:51:06.202Z,20.48
2017-12-24T01:51:38.747Z,19.20
2017-12-24T01:52:11.275Z,19.58
2017-12-24T01:52:43.864Z,20.02
2017-12-24T01:53:16.368Z,19.25
2017-12-24T01:53:48.886Z,19.98
2017-12-24T01:54:21.400Z,18.15
2017-12-24T01:54:54.690Z,20.12
2017-12-24T01:55:28.108Z,19.67
2017-12-24T01:56:00.646Z,18.92
2017-12-24T01:56:33.163Z,20.95
2017-12-24T01:57:05.685Z,18.50
2017-12-24T01:57:38.236Z,19.95
2017-12-24T01:58:10.765Z,20.00
2017-12-24T01:58:43.271Z,20.77
2017-12-24T01:59:15.784Z,20.83
2017-12-24T01:59:48.299Z,20.67
2017-12-24T02:00:20.822Z,20.33
2017-12-24T02:00:54.115Z,20.20
2017-12-24T02:01:27.389Z,20.12
2017-12-24T02:02:00.720Z,20.15
2017-12-24T02:02:33.229Z,18.98
2017-12-24T02:03:05.758Z,20.25
2017-12-24T02:03:38.281Z,19.37
2017-12-24T02:04:10.805Z,19.75
2017-12-24T02:04:43.321Z,21.30
2017-12-24T02:05:15.855Z,18.37
2017-12-24T02:05:48.463Z,20.00
2017-12-24T02:06:20.979Z,20.20
2017-12-24T02:06:53.497Z,19.98
2017-12-24T02:07:26.039Z,21.05
2017-12-24T02:07:58.581Z,20.88
2017-12-24T02:08:31.865Z,20.90
2017-12-24T02:09:04.397Z,19.45
2017-12-24T02:09:36.917Z,21.15
2017-12-24T02:10:09.422Z,19.92
2017-12-24T02:10:41.953Z,19.85
2017-12-24T02:11:14.474Z,22.00
2017-12-24T02:11:46.990Z,19.70
2017-12-24T02:12:19.499Z,20.77
2017-12-24T02:12:52.020Z,20.42
2017-12-24T02:13:24.693Z,20.00
2017-12-24T02:13:57.232Z,19.58
2017-12-24T02:14:29.747Z,21.80
2017-12-24T02:15:02.268Z,19.77
2017-12-24T02:15:34.774Z,21.45
2017-12-24T02:16:08.117Z,20.67
2017-12-24T02:16:40.645Z,19.58
2017-12-24T02:17:13.170Z,21.37
2017-12-24T02:17:45.699Z,19.92
2017-12-24T02:18:18.205Z,22.55
2017-12-24T02:18:51.505Z,21.10
2017-12-24T02:19:24.030Z,20.27
2017-12-24T02:19:56.538Z,22.02
2017-12-24T02:20:29.824Z,20.40
2017-12-24T02:21:02.366Z,20.77
2017-12-24T02:21:34.882Z,20.33
2017-12-24T02:22:07.380Z,21.20
2017-12-24T02:22:39.884Z,21.33
2017-12-24T02:23:12.401Z,21.15
2017-12-24T02:23:44.908Z,22.35
2017-12-24T02:24:17.415Z,21.85
2017-12-24T02:24:49.957Z,20.45
2017-12-24T02:25:22.459Z,20.10
2017-12-24T02:25:54.971Z,20.58
2017-12-24T02:26:27.526Z,21.90
2017-12-24T02:27:00.039Z,21.10
2017-12-24T02:27:32.578Z,21.30
2017-12-24T02:28:05.091Z,21.75
2017-12-24T02:28:37.601Z,22.70
2017-12-24T02:29:10.116Z,22.67
2017-12-24T02:29:42.622Z,21.55
2017-12-24T02:30:15.155Z,22.50
2017-12-24T02:30:47.669Z,20.37
2017-12-24T02:31:20.985Z,21.10
2017-12-24T02:31:53.482Z,22.05
2017-12-24T02:32:26.003Z,22.60
2017-12-24T02:32:59.282Z,21.27
2017-12-24T02:33:31.844Z,22.67
2017-12-24T02:34:04.361Z,22.52
2017-12-24T02:34:36.871Z,20.40
2017-12-24T02:35:10.133Z,22.45
2017-12-24T02:35:42.690Z,23.38
2017-12-24T02:36:15.204Z,22.70
2017-12-24T02:36:47.722Z,21.65
2017-12-24T02:37:20.238Z,23.08
2017-12-24T02:37:52.765Z,23.55
2017-12-24T02:38:26.047Z,22.48
2017-12-24T02:38:59.372Z,21.90
2017-12-24T02:39:31.895Z,21.98
2017-12-24T02:40:04.449Z,22.08
2017-12-24T02:40:36.963Z,22.52
2017-12-24T02:41:09.509Z,21.85
2017-12-24T02:41:42.033Z,21.40
2017-12-24T02:42:14.525Z,20.80
2017-12-24T02:42:47.415Z,23.42
2017-12-24T02:43:19.918Z,21.67
2017-12-24T02:43:52.430Z,21.48
2017-12-24T02:44:24.948Z,21.40
2017-12-24T02:44:57.609Z,22.17
2017-12-24T02:45:30.942Z,21.62
2017-12-24T02:46:03.538Z,21.90
2017-12-24T02:46:36.071Z,22.17
2017-12-24T02:47:08.597Z,21.92
2017-12-24T02:47:41.166Z,22.25
2017-12-24T02:48:13.697Z,20.80
2017-12-24T02:48:46.270Z,23.10
2017-12-24T02:49:18.790Z,22.35
2017-12-24T02:49:51.400Z,21.70
2017-12-24T02:50:23.918Z,20.33
2017-12-24T02:50:56.451Z,22.00
2017-12-24T02:51:29.737Z,21.73
2017-12-24T02:52:03.036Z,22.05
2017-12-24T02:52:35.569Z,20.55
2017-12-24T02:53:08.088Z,22.02
2017-12-24T02:53:40.602Z,20.92
2017-12-24T02:54:13.113Z,20.95
2017-12-24T02:54:45.617Z,21.33
2017-12-24T02:55:18.123Z,20.60
2017-12-24T02:55:50.630Z,19.48
2017-12-24T02:56:23.135Z,23.35
2017-12-24T02:56:55.638Z,21.33
2017-12-24T02:57:28.163Z,21.20
2017-12-24T02:58:01.024Z,22.58
2017-12-24T02:58:34.298Z,20.77
2017-12-24T02:59:07.586Z,20.83
2017-12-24T02:59:40.102Z,20.52
2017-12-24T03:00:12.616Z,20.37
2017-12-24T03:00:45.155Z,19.33
2017-12-24T03:01:17.681Z,21.77
2017-12-24T03:01:50.210Z,21.45
2017-12-24T03:02:22.737Z,22.42
2017-12-24T03:02:55.265Z,20.30
2017-12-24T03:03:27.785Z,20.90
2017-12-24T03:04:01.068Z,21.65
2017-12-24T03:04:33.568Z,20.30
2017-12-24T03:05:06.091Z,21.60
2017-12-24T03:05:38.601Z,20.35
2017-12-24T03:06:11.115Z,20.50
2017-12-24T03:06:44.397Z,19.05
2017-12-24T03:07:16.906Z,18.85
2017-12-24T03:07:49.425Z,20.65
2017-12-24T03:08:22.702Z,19.87
2017-12-24T03:08:55.977Z,20.45
2017-12-24T03:09:29.266Z,20.73
2017-12-24T03:10:02.543Z,19.30
2017-12-24T03:10:35.051Z,20.92
2017-12-24T03:11:07.562Z,20.10
2017-12-24T03:11:40.849Z,19.20
2017-12-24T03:12:13.352Z,20.50
2017-12-24T03:12:45.864Z,20.35
2017-12-24T03:13:18.373Z,20.37
2017-12-24T03:13:50.920Z,18.70
2017-12-24T03:14:23.451Z,19.70
2017-12-24T03:14:55.959Z,20.85
2017-12-24T03:15:28.465Z,19.48
2017-12-24T03:16:00.973Z,19.50
2017-12-24T03:16:33.478Z,20.27
2017-12-24T03:17:06.007Z,20.95
2017-12-24T03:17:38.519Z,19.77
2017-12-24T03:18:11.142Z,20.40
2017-12-24T03:18:43.663Z,20.62
2017-12-24T03:19:16.170Z,19.45
2017-12-24T03:19:48.680Z,21.45
2017-12-24T03:20:21.191Z,21.02
2017-12-24T03:20:53.710Z,19.27
2017-12-24T03:21:26.243Z,18.83
2017-12-24T03:21:58.762Z,19.20
2017-12-24T03:22:31.275Z,19.40
2017-12-24T03:23:03.796Z,20.48
2017-12-24T03:23:36.310Z,19.33
2017-12-24T03:24:08.831Z,20.83
2017-12-24T03:24:41.353Z,18.40
2017-12-24T03:25:13.854Z,20.73
2017-12-24T03:25:46.365Z,20.00
2017-12-24T03:26:18.914Z,19.42
2017-12-24T03:26:51.436Z,18.30
2017-12-24T03:27:23.960Z,20.10
2017-12-24T03:27:56.469Z,20.25
2017-12-24T03:28:29.143Z,18.95
2017-12-24T03:29:01.672Z,19.90
2017-12-24T03:29:34.218Z,19.37
2017-12-24T03:30:06.774Z,19.58
2017-12-24T03:30:39.290Z,19.75
2017-12-24T03:31:11.830Z,18.35
2017-12-24T03:31:45.109Z,20.10
2017-12-24T03:32:18.388Z,19.95
2017-12-24T03:32:51.684Z,17.40
2017-12-24T03:33:24.205Z,19.67
2017-12-24T03:33:56.745Z,19.42
2017-12-24T03:34:29.256Z,19.00
2017-12-24T03:35:02.548Z,19.20
2017-12-24T03:35:35.867Z,20.10
2017-12-24T03:36:08.394Z,18.42
2017-12-24T03:36:40.907Z,19.08
2017-12-24T03:37:13.430Z,19.35
2017-12-24T03:37:45.937Z,20.48
2017-12-24T03:38:18.477Z,19.00
2017-12-24T03:38:50.990Z,19.45
2017-12-24T03:39:23.798Z,20.02
2017-12-24T03:39:56.322Z,19.08
2017-12-24T03:40:28.836Z,19.50
2017-12-24T03:41:01.381Z,19.20
2017-12-24T03:41:33.923Z,19.40
2017-12-24T03:42:07.339Z,19.40
2017-12-24T03:42:39.850Z,19.62
2017-12-24T03:43:12.367Z,18.87
2017-12-24T03:43:44.893Z,19.15
2017-12-24T03:44:17.601Z,19.27
2017-12-24T03:44:50.103Z,18.27
2017-12-24T03:45:22.715Z,19.55
2017-12-24T03:45:55.248Z,18.60
2017-12-24T03:46:28.553Z,20.25
2017-12-24T03:47:01.850Z,19.40
2017-12-24T03:47:34.445Z,20.17
2017-12-24T03:48:06.961Z,19.62
2017-12-24T03:48:39.472Z,19.05
2017-12-24T03:49:12.019Z,19.02
2017-12-24T03:49:44.565Z,17.50
2017-12-24T03:50:17.108Z,18.55
2017-12-24T03:50:50.426Z,18.23
2017-12-24T03:51:22.972Z,17.83
2017-12-24T03:51:55.502Z,19.17
2017-12-24T03:52:28.022Z,19.45
2017-12-24T03:53:00.526Z,17.75
2017-12-24T03:53:33.062Z,19.58
2017-12-24T03:54:05.610Z,19.25
2017-12-24T03:54:38.362Z,17.80
2017-12-24T03:55:10.911Z,20.15
2017-12-24T03:55:43.566Z,19.10
2017-12-24T03:56:16.842Z,17.08
2017-12-24T03:56:50.127Z,17.02
2017-12-24T03:57:22.668Z,18.23
2017-12-24T03:57:55.215Z,17.20
2017-12-24T03:58:27.718Z,18.05
2017-12-24T03:59:01.009Z,19.35
2017-12-24T03:59:33.532Z,17.60
2017-12-24T04:00:06.083Z,18.00
2017-12-24T04:00:38.591Z,19.17
2017-12-24T04:01:11.883Z,16.95
2017-12-24T04:01:44.401Z,17.95
2017-12-24T04:02:16.916Z,17.33
2017-12-24T04:02:49.433Z,18.98
2017-12-24T04:03:21.975Z,18.50
2017-12-24T04:03:54.484Z,18.87
2017-12-24T04:04:27.767Z,18.08
2017-12-24T04:05:01.070Z,19.37
2017-12-24T04:05:33.574Z,18.12
2017-12-24T04:06:06.086Z,17.87
2017-12-24T04:06:38.602Z,17.92
2017-12-24T04:07:11.115Z,18.80
2017-12-24T04:07:43.658Z,18.17
2017-12-24T04:08:16.962Z,18.48
2017-12-24T04:08:49.501Z,17.67
2017-12-24T04:09:22.010Z,18.65
2017-12-24T04:09:54.521Z,20.48
2017-12-24T04:10:27.806Z,19.40
2017-12-24T04:11:01.123Z,18.52
2017-12-24T04:11:33.635Z,19.02
2017-12-24T04:12:06.144Z,17.80
2017-12-24T04:12:38.645Z,19.30
2017-12-24T04:13:11.153Z,18.35
2017-12-24T04:13:43.688Z,19.17
2017-12-24T04:14:16.201Z,18.67
2017-12-24T04:14:48.716Z,18.12
2017-12-24T04:15:21.253Z,19.05
2017-12-24T04:15:53.767Z,19.90
2017-12-24T04:16:27.051Z,17.83
2017-12-24T04:16:59.561Z,19.40
2017-12-24T04:17:32.067Z,18.12
2017-12-24T04:18:05.381Z,18.33
2017-12-24T04:18:37.907Z,18.37
2017-12-24T04:19:11.200Z,19.05
2017-12-24T04:19:43.707Z,18.40
2017-12-24T04:20:16.211Z,18.17
2017-12-24T04:20:48.728Z,18.40
2017-12-24T04:21:21.256Z,18.60
2017-12-24T04:21:53.788Z,17.85
2017-12-24T04:22:26.301Z,18.30
2017-12-24T04:22:58.810Z,18.92
2017-12-24T04:23:31.349Z,18.40
2017-12-24T04:24:03.925Z,18.45
2017-12-24T04:24:36.424Z,17.70
2017-12-24T04:25:09.697Z,18.77
2017-12-24T04:25:42.981Z,17.45
2017-12-24T04:26:16.266Z,18.08
2017-12-24T04:26:48.771Z,17.35
2017-12-24T04:27:21.296Z,17.77
2017-12-24T04:27:54.565Z,18.30
2017-12-24T04:28:27.070Z,18.83
2017-12-24T04:28:59.578Z,18.17
2017-12-24T04:29:32.090Z,16.98
2017-12-24T04:30:04.620Z,18.80
2017-12-24T04:30:37.151Z,16.65
2017-12-24T04:31:09.692Z,18.55
2017-12-24T04:31:42.202Z,18.48
2017-12-24T04:32:14.710Z,17.58
2017-12-24T04:32:47.260Z,18.48
2017-12-24T04:33:19.816Z,18.50
2017-12-24T04:33:52.327Z,17.30
2017-12-24T04:34:24.840Z,17.17
2017-12-24T04:34:57.351Z,16.62
2017-12-24T04:35:29.877Z,19.25
2017-12-24T04:36:02.378Z,18.98
2017-12-24T04:36:34.891Z,17.50
2017-12-24T04:37:07.401Z,17.75
2017-12-24T04:37:39.914Z,16.52
2017-12-24T04:38:12.439Z,18.40
2017-12-24T04:38:44.968Z,17.92
2017-12-24T04:39:17.503Z,17.48
2017-12-24T04:39:50.808Z,19.40
2017-12-24T04:40:23.345Z,16.37
2017-12-24T04:40:55.915Z,19.30
2017-12-24T04:41:28.422Z,17.87
2017-12-24T04:42:00.957Z,18.73
2017-12-24T04:42:34.286Z,17.35
2017-12-24T04:43:06.866Z,15.70
2017-12-24T04:43:39.389Z,18.37
2017-12-24T04:44:11.906Z,17.85
2017-12-24T04:44:44.476Z,18.02
2017-12-24T04:45:17.016Z,17.27
2017-12-24T04:45:49.526Z,17.33
2017-12-24T04:46:22.058Z,17.50
2017-12-24T04:46:54.596Z,16.92
2017-12-24T04:47:27.101Z,18.25
2017-12-24T04:47:59.649Z,17.10
2017-12-24T04:48:32.920Z,16.37
2017-12-24T04:49:06.273Z,17.83
2017-12-24T04:49:38.792Z,17.80
2017-12-24T04:50:11.305Z,17.30
2017-12-24T04:50:43.812Z,17.45
2017-12-24T04:51:16.360Z,17.60
2017-12-24T04:51:48.885Z,17.48
2017-12-24T04:52:21.392Z,16.80
2017-12-24T04:52:54.706Z,16.33
2017-12-24T04:53:27.245Z,18.52
2017-12-24T04:53:59.760Z,17.50
2017-12-24T04:54:32.259Z,17.35
2017-12-24T04:55:05.544Z,18.12
2017-12-24T04:55:38.820Z,19.08
2017-12-24T04:56:11.336Z,17.62
2017-12-24T04:56:43.842Z,18.12
2017-12-24T04:57:16.363Z,17.00
2017-12-24T04:57:48.900Z,17.08
2017-12-24T04:58:21.419Z,18.35
2017-12-24T04:58:53.925Z,17.73
2017-12-24T04:59:26.454Z,18.52
2017-12-24T04:59:58.979Z,16.95
2017-12-24T05:00:31.516Z,17.60
2017-12-24T05:01:04.027Z,19.17
2017-12-24T05:01:36.549Z,17.35
2017-12-24T05:02:09.054Z,17.87
2017-12-24T05:02:41.587Z,17.08
2017-12-24T05:03:14.093Z,17.73
2017-12-24T05:03:46.622Z,18.73
2017-12-24T05:04:19.137Z,17.95
2017-12-24T05:04:51.646Z,17.20
2017-12-24T05:05:24.174Z,17.12
2017-12-24T05:05:56.743Z,17.62
2017-12-24T05:06:29.250Z,16.87
2017-12-24T05:07:01.749Z,17.60
2017-12-24T05:07:34.263Z,17.20
2017-12-24T05:08:06.782Z,16.75
2017-12-24T05:08:39.305Z,17.30
2017-12-24T05:09:11.830Z,17.80
2017-12-24T05:09:44.336Z,16.58
2017-12-24T05:10:16.854Z,15.85
2017-12-24T05:10:49.368Z,18.17
2017-12-24T05:11:21.893Z,17.35
2017-12-24T05:11:54.421Z,15.95
2017-12-24T05:12:26.954Z,17.73
2017-12-24T05:12:59.510Z,16.80
2017-12-24T05:13:32.037Z,15.85
2017-12-24T05:14:04.556Z,16.50
2017-12-24T05:14:37.829Z,17.92
2017-12-24T05:15:10.350Z,16.90
2017-12-24T05:15:42.877Z,17.60
2017-12-24T05:16:16.202Z,17.45
2017-12-24T05:16:48.742Z,17.35
2017-12-24T05:17:21.251Z,17.50
2017-12-24T05:17:53.784Z,16.17
2017-12-24T05:18:26.297Z,16.37
2017-12-24T05:18:59.612Z,16.70
2017-12-24T05:19:32.126Z,16.25
2017-12-24T05:20:04.650Z,17.48
2017-12-24T05:20:37.164Z,16.25
2017-12-24T05:21:09.695Z,17.05
2017-12-24T05:21:42.200Z,16.20
2017-12-24T05:22:14.764Z,16.90
2017-12-24T05:22:47.325Z,18.17
2017-12-24T05:23:20.604Z,16.20
2017-12-24T05:23:53.941Z,17.75
2017-12-24T05:24:26.478Z,17.25
2017-12-24T05:24:58.985Z,15.93
2017-12-24T05:25:31.498Z,17.62
2017-12-24T05:26:04.020Z,17.50
2017-12-24T05:26:36.558Z,17.55
2017-12-24T05:27:09.064Z,18.27
2017-12-24T05:27:42.330Z,18.37
2017-12-24T05:28:14.833Z,18.37
2017-12-24T05:28:47.328Z,17.10
2017-12-24T05:29:20.616Z,16.45
2017-12-24T05:29:53.138Z,16.98
2017-12-24T05:30:25.642Z,17.85
2017-12-24T05:30:58.157Z,16.60
2017-12-24T05:31:30.668Z,16.65
2017-12-24T05:32:03.205Z,16.85
2017-12-24T05:32:35.711Z,17.50
2017-12-24T05:33:08.225Z,17.17
2017-12-24T05:33:40.736Z,15.57
2017-12-24T05:34:13.366Z,17.25
2017-12-24T05:34:45.894Z,17.08
2017-12-24T05:35:18.441Z,17.58
2017-12-24T05:35:50.970Z,16.65
2017-12-24T05:36:23.527Z,16.83
2017-12-24T05:36:56.054Z,18.33
2017-12-24T05:37:28.585Z,17.33
2017-12-24T05:38:01.105Z,18.08
2017-12-24T05:38:33.635Z,17.40
2017-12-24T05:39:06.915Z,17.25
2017-12-24T05:39:39.456Z,17.87
2017-12-24T05:40:11.984Z,17.52
2017-12-24T05:40:44.525Z,16.37
2017-12-24T05:41:17.046Z,18.42
2017-12-24T05:41:49.604Z,17.85
2017-12-24T05:42:22.119Z,16.98
2017-12-24T05:42:54.634Z,18.30
2017-12-24T05:43:27.151Z,17.60
2017-12-24T05:43:59.674Z,17.35
2017-12-24T05:44:33.077Z,18.95
2017-12-24T05:45:06.452Z,17.50
2017-12-24T05:45:38.966Z,17.35
2017-12-24T05:46:11.501Z,17.12
2017-12-24T05:46:44.018Z,17.35
2017-12-24T05:47:16.546Z,17.55
2017-12-24T05:47:49.061Z,17.48
2017-12-24T05:48:22.370Z,19.40
2017-12-24T05:48:54.877Z,17.62
2017-12-24T05:49:27.406Z,16.42
2017-12-24T05:49:59.918Z,18.33
2017-12-24T05:50:32.445Z,17.55
2017-12-24T05:51:04.962Z,17.48
2017-12-24T05:51:38.500Z,17.67
2017-12-24T05:52:11.001Z,16.87
2017-12-24T05:52:43.504Z,17.08
2017-12-24T05:53:16.045Z,16.27
2017-12-24T05:53:48.554Z,17.73
2017-12-24T05:54:21.106Z,17.10
2017-12-24T05:54:53.658Z,16.83
2017-12-24T05:55:26.172Z,18.60
2017-12-24T05:55:59.481Z,16.87
2017-12-24T05:56:32.014Z,17.40
2017-12-24T05:57:04.545Z,17.65
2017-12-24T05:57:37.072Z,17.52
2017-12-24T05:58:09.638Z,17.48
2017-12-24T05:58:42.141Z,18.15
2017-12-24T05:59:14.657Z,17.12
2017-12-24T05:59:49.321Z,17.92
2017-12-24T06:00:21.857Z,18.40
2017-12-24T06:00:54.488Z,18.80
2017-12-24T06:01:28.707Z,17.10
2017-12-24T06:02:01.254Z,16.80
2017-12-24T06:02:34.549Z,17.42
2017-12-24T06:03:07.062Z,17.02
2017-12-24T06:03:39.574Z,16.92
2017-12-24T06:04:12.851Z,17.48
2017-12-24T06:04:45.386Z,16.80
2017-12-24T06:05:17.895Z,17.12
2017-12-24T06:05:50.407Z,16.75
2017-12-24T06:06:22.930Z,17.67
2017-12-24T06:06:55.453Z,17.23
2017-12-24T06:07:28.744Z,17.33
2017-12-24T06:08:02.062Z,17.77
2017-12-24T06:08:34.570Z,16.33
2017-12-24T06:09:07.085Z,17.60
2017-12-24T06:09:39.597Z,17.77
2017-12-24T06:10:12.106Z,17.00
2017-12-24T06:10:44.611Z,17.10
2017-12-24T06:11:17.140Z,17.20
2017-12-24T06:11:49.661Z,17.90
2017-12-24T06:12:22.179Z,18.12
2017-12-24T06:12:54.698Z,18.70
2017-12-24T06:13:27.999Z,18.58
2017-12-24T06:14:00.515Z,19.02
2017-12-24T06:14:33.026Z,16.95
2017-12-24T06:15:05.557Z,17.67
2017-12-24T06:15:38.834Z,16.52
2017-12-24T06:16:11.349Z,17.33
2017-12-24T06:16:43.878Z,16.40
2017-12-24T06:17:17.152Z,18.73
2017-12-24T06:17:50.457Z,17.37
2017-12-24T06:18:23.011Z,18.35
2017-12-24T06:18:55.543Z,17.85
2017-12-24T06:19:28.834Z,18.25
2017-12-24T06:20:02.124Z,17.42
2017-12-24T06:20:34.630Z,16.30
2017-12-24T06:21:07.137Z,17.48
2017-12-24T06:21:40.429Z,17.92
2017-12-24T06:22:12.941Z,18.02
2017-12-24T06:22:45.465Z,17.62
2017-12-24T06:23:17.981Z,18.45
2017-12-24T06:23:50.490Z,15.98
2017-12-24T06:24:23.040Z,17.45
2017-12-24T06:24:56.334Z,18.02
2017-12-24T06:25:29.619Z,18.62
2017-12-24T06:26:02.154Z,17.00
2017-12-24T06:26:34.673Z,17.50
2017-12-24T06:27:07.186Z,17.80
2017-12-24T06:27:40.466Z,18.00
2017-12-24T06:28:12.975Z,17.67
2017-12-24T06:28:46.162Z,17.92
2017-12-24T06:29:18.709Z,16.90
2017-12-24T06:29:51.253Z,18.17
2017-12-24T06:30:23.778Z,18.10
2017-12-24T06:30:56.288Z,18.00
2017-12-24T06:31:28.819Z,18.27
2017-12-24T06:32:01.398Z,19.98
2017-12-24T06:32:34.683Z,20.00
2017-12-24T06:33:08.038Z,18.50
2017-12-24T06:33:40.562Z,18.08
2017-12-24T06:34:13.079Z,18.45
2017-12-24T06:34:46.354Z,17.02
2017-12-24T06:35:18.902Z,16.05
2017-12-24T06:35:51.589Z,16.90
2017-12-24T06:36:24.063Z,17.05
2017-12-24T06:36:56.588Z,17.80
2017-12-24T06:37:29.114Z,16.85
2017-12-24T06:38:01.624Z,18.23
2017-12-24T06:38:34.159Z,17.73
2017-12-24T06:39:06.790Z,18.08
2017-12-24T06:39:39.380Z,16.58
2017-12-24T06:40:11.900Z,17.02
2017-12-24T06:40:44.425Z,16.92
2017-12-24T06:41:16.955Z,17.30
2017-12-24T06:41:49.466Z,17.73
2017-12-24T06:42:21.979Z,17.75
2017-12-24T06:42:54.486Z,18.60
2017-12-24T06:43:26.999Z,17.85
2017-12-24T06:43:59.501Z,17.35
2017-12-24T06:44:32.012Z,16.92
2017-12-24T06:45:05.289Z,19.42
2017-12-24T06:45:37.811Z,20.77
2017-12-24T06:46:10.330Z,17.33
2017-12-24T06:46:42.847Z,17.58
2017-12-24T06:47:16.008Z,17.35
2017-12-24T06:47:48.515Z,17.50
2017-12-24T06:48:21.839Z,18.05
2017-12-24T06:48:54.361Z,17.95
2017-12-24T06:49:27.661Z,18.42
2017-12-24T06:50:00.202Z,19.02
2017-12-24T06:50:32.717Z,19.15
2017-12-24T06:51:05.273Z,18.17
2017-12-24T06:51:37.834Z,18.48
2017-12-24T06:52:10.333Z,17.70
2017-12-24T06:52:42.915Z,18.70
2017-12-24T06:53:16.197Z,17.90
2017-12-24T06:53:48.765Z,18.23
2017-12-24T06:54:21.246Z,18.45
2017-12-24T06:54:53.765Z,18.27
2017-12-24T06:55:26.261Z,19.50
2017-12-24T06:55:58.758Z,18.25
2017-12-24T06:56:31.287Z,19.27
2017-12-24T06:57:03.817Z,18.20
2017-12-24T06:57:36.325Z,18.02
2017-12-24T06:58:08.826Z,20.55
2017-12-24T06:58:41.365Z,19.87
2017-12-24T06:59:13.887Z,20.37
2017-12-24T06:59:46.410Z,18.35
2017-12-24T07:00:18.927Z,19.85
2017-12-24T07:00:51.467Z,18.37
2017-12-24T07:01:24.000Z,19.20
2017-12-24T07:01:56.533Z,21.10
2017-12-24T07:02:29.060Z,19.08
2017-12-24T07:03:01.573Z,22.33
2017-12-24T07:03:34.099Z,20.37
2017-12-24T07:04:07.398Z,19.35
2017-12-24T07:04:40.683Z,20.30
2017-12-24T07:05:13.205Z,19.05
2017-12-24T07:05:45.763Z,19.90
2017-12-24T07:06:18.303Z,19.48
2017-12-24T07:06:50.822Z,20.35
2017-12-24T07:07:24.093Z,20.12
2017-12-24T07:07:57.276Z,23.67
2017-12-24T07:08:29.789Z,23.75
2017-12-24T07:09:02.303Z,20.95
2017-12-24T07:09:35.586Z,21.87
2017-12-24T07:10:08.099Z,20.70
2017-12-24T07:10:40.614Z,22.45
2017-12-24T07:11:13.147Z,19.98
2017-12-24T07:11:45.702Z,20.83
2017-12-24T07:12:18.209Z,18.85
2017-12-24T07:12:50.709Z,22.17
2017-12-24T07:13:23.245Z,20.60